createdAt,value
2018-05-29T00:00:44.782Z,24.20
2018-05-29T00:02:45.736Z,22.40
2018-05-29T00:04:47.054Z,23.37
2018-05-29T00:06:48.016Z,23.23
2018-05-29T00:08:48.978Z,22.80
2018-05-29T00:10:49.918Z,23.10
2018-05-29T00:12:50.889Z,23.40
2018-05-29T00:14:51.833Z,23.53
2018-05-29T00:16:52.773Z,22.10
2018-05-29T00:18:54.106Z,23.13
2018-05-29T00:20:55.083Z,22.40
2018-05-29T00:22:56.036Z,21.20
2018-05-29T00:24:57.210Z,20.70
2018-05-29T00:26:58.148Z,20.50
2018-05-29T00:28:59.511Z,21.07
2018-05-29T00:31:01.219Z,21.10
2018-05-29T00:33:02.163Z,21.27
2018-05-29T00:35:03.148Z,21.07
2018-05-29T00:37:04.109Z,21.00
2018-05-29T00:39:05.063Z,19.70
2018-05-29T00:41:06.011Z,20.37
2018-05-29T00:43:07.114Z,20.10
2018-05-29T00:45:08.053Z,20.60
2018-05-29T00:47:08.991Z,19.00
2018-05-29T00:49:09.975Z,19.20
2018-05-29T00:51:11.301Z,20.60
2018-05-29T00:53:12.246Z,20.70
2018-05-29T00:55:25.979Z,20.13
2018-05-29T00:57:27.482Z,18.00
2018-05-29T00:59:28.422Z,17.30
2018-05-29T01:01:29.379Z,18.67
2018-05-29T01:03:30.368Z,17.10
2018-05-29T01:05:31.315Z,17.37
2018-05-29T01:07:32.256Z,17.50
2018-05-29T01:09:33.223Z,17.20
2018-05-29T01:11:34.562Z,18.00
2018-05-29T01:13:35.882Z,17.10
2018-05-29T01:15:36.814Z,15.97
2018-05-29T01:17:37.761Z,15.97
2018-05-29T01:19:38.802Z,17.10
2018-05-29T01:21:39.746Z,17.20
2018-05-29T01:23:41.059Z,17.10
2018-05-29T01:25:42.198Z,15.63
2018-05-29T01:27:43.158Z,17.13
2018-05-29T01:29:44.085Z,15.93
2018-05-29T01:31:45.407Z,15.17
2018-05-29T01:33:46.358Z,14.57
2018-05-29T01:35:47.310Z,15.97
2018-05-29T01:37:48.659Z,15.10
2018-05-29T01:39:49.977Z,16.00
2018-05-29T01:41:50.918Z,14.40
2018-05-29T01:43:51.883Z,15.67
2018-05-29T01:45:52.846Z,14.83
2018-05-29T01:47:53.790Z,15.40
2018-05-29T01:49:54.739Z,14.70
2018-05-29T01:51:55.798Z,14.43
2018-05-29T01:53:57.105Z,14.30
2018-05-29T01:55:58.066Z,14.20
2018-05-29T01:57:59.019Z,15.30
2018-05-29T02:00:00.335Z,15.10
2018-05-29T02:02:01.269Z,14.67
2018-05-29T02:04:02.270Z,15.30
2018-05-29T02:06:10.375Z,14.60
2018-05-29T02:08:11.323Z,14.27
2018-05-29T02:10:12.309Z,14.93
2018-05-29T02:12:13.272Z,14.23
2018-05-29T02:14:14.255Z,14.30
2018-05-29T02:18:23.050Z,13.93
2018-05-29T02:20:24.035Z,14.07
2018-05-29T02:22:25.361Z,14.10
2018-05-29T02:24:26.300Z,14.73
2018-05-29T02:26:27.628Z,14.00
2018-05-29T02:28:28.639Z,14.17
2018-05-29T02:30:29.586Z,13.77
2018-05-29T02:32:30.527Z,14.63
2018-05-29T02:34:31.487Z,15.03
2018-05-29T02:36:32.797Z,13.87
2018-05-29T02:38:33.752Z,13.50
2018-05-29T02:40:34.699Z,13.83
2018-05-29T02:42:36.025Z,14.23
2018-05-29T02:44:36.980Z,15.20
2018-05-29T02:46:38.290Z,15.27
2018-05-29T02:48:39.237Z,14.30
2018-05-29T02:50:40.185Z,14.73
2018-05-29T02:52:41.501Z,14.90
2018-05-29T02:54:42.467Z,14.60
2018-05-29T02:56:43.776Z,14.33
2018-05-29T02:58:44.725Z,13.93
2018-05-29T03:00:45.686Z,14.57
2018-05-29T03:02:46.645Z,26.53
2018-05-29T03:04:47.592Z,33.60
2018-05-29T03:06:48.563Z,30.70
2018-05-29T03:08:49.502Z,19.77
2018-05-29T03:10:50.448Z,17.53
2018-05-29T03:12:51.789Z,29.23
2018-05-29T03:14:52.713Z,15.90
2018-05-29T03:16:54.026Z,14.97
2018-05-29T03:18:54.970Z,16.43
2018-05-29T03:20:55.995Z,15.07
2018-05-29T03:22:57.259Z,16.33
2018-05-29T03:24:58.314Z,15.60
2018-05-29T03:26:59.631Z,15.40
2018-05-29T03:29:00.571Z,14.73
2018-05-29T03:31:01.538Z,15.03
2018-05-29T03:33:02.498Z,15.13
2018-05-29T03:35:03.447Z,15.20
2018-05-29T03:37:04.382Z,15.27
2018-05-29T03:39:05.330Z,16.40
2018-05-29T03:41:06.303Z,16.10
2018-05-29T03:43:07.655Z,15.50
2018-05-29T03:45:08.603Z,16.60
2018-05-29T03:47:09.547Z,15.10
2018-05-29T03:49:10.495Z,15.77
2018-05-29T03:51:11.459Z,15.17
2018-05-29T03:53:12.404Z,15.87
2018-05-29T03:55:13.718Z,15.47
2018-05-29T03:57:14.687Z,15.60
2018-05-29T03:59:16.520Z,15.23
2018-05-29T04:01:17.454Z,16.00
2018-05-29T04:03:18.431Z,15.20
2018-05-29T04:05:19.432Z,15.40
2018-05-29T04:07:20.380Z,14.83
2018-05-29T04:09:21.713Z,15.53
2018-05-29T04:11:22.647Z,15.97
2018-05-29T04:13:23.962Z,16.00
2018-05-29T04:15:25.305Z,16.40
2018-05-29T04:17:26.272Z,16.23
2018-05-29T04:19:27.605Z,15.63
2018-05-29T04:21:28.561Z,15.50
2018-05-29T04:23:29.896Z,16.60
2018-05-29T04:25:31.214Z,17.17
2018-05-29T04:27:32.211Z,16.37
2018-05-29T04:29:33.186Z,15.23
2018-05-29T04:31:34.135Z,20.73
2018-05-29T04:33:35.913Z,23.80
2018-05-29T04:35:36.884Z,19.33
2018-05-29T04:37:37.821Z,16.67
2018-05-29T04:39:38.773Z,17.30
2018-05-29T04:41:39.723Z,19.00
2018-05-29T04:43:41.120Z,16.80
2018-05-29T04:45:42.421Z,16.50
2018-05-29T04:47:43.742Z,17.30
2018-05-29T04:49:44.750Z,18.33
2018-05-29T04:51:46.018Z,17.73
2018-05-29T04:53:46.973Z,17.90
2018-05-29T04:55:48.294Z,17.70
2018-05-29T04:57:49.249Z,16.87
2018-05-29T04:59:50.588Z,18.90
2018-05-29T05:01:51.898Z,24.50
2018-05-29T05:03:52.849Z,16.23
2018-05-29T05:05:53.812Z,18.20
2018-05-29T05:07:55.139Z,18.90
2018-05-29T05:09:56.470Z,18.53
2018-05-29T05:11:57.418Z,17.37
2018-05-29T05:13:58.766Z,17.47
2018-05-29T05:16:00.077Z,17.83
2018-05-29T05:18:01.041Z,18.00
2018-05-29T05:20:02.450Z,17.30
2018-05-29T05:22:03.402Z,16.70
2018-05-29T05:24:04.356Z,18.93
2018-05-29T05:26:05.296Z,17.30
2018-05-29T05:28:06.614Z,18.10
2018-05-29T05:30:07.617Z,17.60
2018-05-29T05:32:08.523Z,19.60
2018-05-29T05:34:09.662Z,17.80
2018-05-29T05:36:10.612Z,17.47
2018-05-29T05:38:11.570Z,16.03
2018-05-29T05:40:12.793Z,18.13
2018-05-29T05:42:13.739Z,17.47
2018-05-29T05:44:14.688Z,16.77
2018-05-29T05:46:15.630Z,16.83
2018-05-29T05:48:16.574Z,16.70
2018-05-29T05:50:17.887Z,16.90
2018-05-29T05:52:18.963Z,17.33
2018-05-29T05:54:20.279Z,17.47
2018-05-29T05:56:21.235Z,22.40
2018-05-29T05:58:22.547Z,20.43
2018-05-29T06:00:23.493Z,21.53
2018-05-29T06:02:24.485Z,15.83
2018-05-29T06:04:25.421Z,16.40
2018-05-29T06:06:26.362Z,15.97
2018-05-29T06:08:27.318Z,16.07
2018-05-29T06:10:28.267Z,14.80
2018-05-29T06:12:29.221Z,15.40
2018-05-29T06:14:30.549Z,15.83
2018-05-29T06:16:32.159Z,15.23
2018-05-29T06:18:33.114Z,14.87
2018-05-29T06:20:34.064Z,15.10
2018-05-29T06:22:35.006Z,16.07
2018-05-29T06:24:36.326Z,16.50
2018-05-29T06:26:37.269Z,16.47
2018-05-29T06:28:38.217Z,15.40
2018-05-29T06:30:39.560Z,15.87
2018-05-29T06:32:40.875Z,15.70
2018-05-29T06:34:41.829Z,15.13
2018-05-29T06:36:42.790Z,15.23
2018-05-29T06:38:43.797Z,16.47
2018-05-29T06:40:44.694Z,15.23
2018-05-29T06:42:45.654Z,15.33
2018-05-29T06:44:46.641Z,15.67
2018-05-29T06:46:47.601Z,14.93
2018-05-29T06:48:48.546Z,14.03
2018-05-29T06:50:49.507Z,15.10
2018-05-29T06:52:50.488Z,15.30
2018-05-29T06:54:51.438Z,14.40
2018-05-29T06:56:52.385Z,14.53
2018-05-29T06:58:53.727Z,15.03
2018-05-29T07:00:54.681Z,14.93
2018-05-29T07:02:55.678Z,15.23
2018-05-29T07:04:56.721Z,14.13
2018-05-29T07:06:57.681Z,16.10
2018-05-29T07:08:58.621Z,15.80
2018-05-29T07:10:59.755Z,20.07
2018-05-29T07:13:00.726Z,14.27
2018-05-29T07:15:01.684Z,14.53
2018-05-29T07:17:02.746Z,19.43
2018-05-29T07:19:03.707Z,19.17
2018-05-29T07:21:05.021Z,14.57
2018-05-29T07:23:05.974Z,15.00
2018-05-29T07:25:07.304Z,13.77
2018-05-29T07:27:08.580Z,15.37
2018-05-29T07:29:11.441Z,13.60
2018-05-29T07:31:12.463Z,14.13
2018-05-29T07:33:13.498Z,14.60
2018-05-29T07:35:14.450Z,14.40
2018-05-29T07:37:15.487Z,16.97
2018-05-29T07:39:16.833Z,16.60
2018-05-29T07:41:18.166Z,14.67
2018-05-29T07:43:19.369Z,14.40
2018-05-29T07:45:20.309Z,14.40
2018-05-29T07:47:21.372Z,14.40
2018-05-29T07:49:22.372Z,15.00
2018-05-29T07:51:23.326Z,14.53
2018-05-29T07:53:24.282Z,14.80
2018-05-29T07:55:25.229Z,13.87
2018-05-29T07:57:26.545Z,15.03
2018-05-29T07:59:27.494Z,13.23
2018-05-29T08:01:28.443Z,13.90
2018-05-29T08:03:29.751Z,13.60
2018-05-29T08:05:30.739Z,14.10
2018-05-29T08:07:31.725Z,13.83
2018-05-29T08:09:32.821Z,13.37
2018-05-29T08:11:33.759Z,13.97
2018-05-29T08:13:34.729Z,16.30
2018-05-29T08:15:35.657Z,12.43
2018-05-29T08:17:36.610Z,13.83
2018-05-29T08:19:37.574Z,13.70
2018-05-29T08:21:38.511Z,15.97
2018-05-29T08:23:39.460Z,13.73
2018-05-29T08:25:40.418Z,13.63
2018-05-29T08:27:41.354Z,13.30
2018-05-29T08:29:42.311Z,12.83
2018-05-29T08:31:43.267Z,13.60
2018-05-29T08:33:44.956Z,13.30
2018-05-29T08:35:45.902Z,14.33
2018-05-29T08:37:46.861Z,13.13
2018-05-29T08:39:47.949Z,13.33
2018-05-29T08:41:48.882Z,13.03
2018-05-29T08:43:50.172Z,13.03
2018-05-29T08:45:51.112Z,12.23
2018-05-29T08:47:52.056Z,12.93
2018-05-29T08:49:53.760Z,12.50
2018-05-29T08:51:54.711Z,12.53
2018-05-29T08:53:55.654Z,11.97
2018-05-29T08:55:56.661Z,12.33
2018-05-29T08:57:57.596Z,12.00
2018-05-29T08:59:58.539Z,12.57
2018-05-29T09:01:59.600Z,12.20
2018-05-29T09:04:00.566Z,12.60
2018-05-29T09:06:02.230Z,11.77
2018-05-29T09:08:03.492Z,12.43
2018-05-29T09:10:04.438Z,12.30
2018-05-29T09:12:05.382Z,11.30
2018-05-29T09:14:06.338Z,11.60
2018-05-29T09:16:07.292Z,14.60
2018-05-29T09:18:08.971Z,14.63
2018-05-29T09:20:10.670Z,11.93
2018-05-29T09:22:11.615Z,12.07
2018-05-29T09:24:12.806Z,11.40
2018-05-29T09:26:13.828Z,11.77
2018-05-29T09:28:15.152Z,11.80
2018-05-29T09:30:16.106Z,11.80
2018-05-29T09:32:17.075Z,12.10
2018-05-29T09:34:18.021Z,11.50
2018-05-29T09:36:18.980Z,10.50
2018-05-29T09:38:20.721Z,11.30
2018-05-29T09:40:21.673Z,11.10
2018-05-29T09:42:23.394Z,10.70
2018-05-29T09:44:24.338Z,11.10
2018-05-29T09:46:25.284Z,10.00
2018-05-29T09:48:27.000Z,10.27
2018-05-29T09:50:27.959Z,11.07
2018-05-29T09:52:28.909Z,12.17
2018-05-29T09:54:30.644Z,10.40
2018-05-29T09:56:31.588Z,10.90
2018-05-29T09:58:33.273Z,10.60
2018-05-29T10:00:39.175Z,10.83
2018-05-29T10:02:40.136Z,9.73
2018-05-29T10:04:41.820Z,10.23
2018-05-29T10:06:42.778Z,10.57
2018-05-29T10:08:43.722Z,10.60
2018-05-29T10:10:44.689Z,10.50
2018-05-29T10:12:46.384Z,9.63
2018-05-29T10:14:47.342Z,10.30
2018-05-29T10:16:48.281Z,10.03
2018-05-29T10:18:49.222Z,10.50
2018-05-29T10:20:50.178Z,9.97
2018-05-29T10:22:51.875Z,11.20
2018-05-29T10:24:52.970Z,10.37
2018-05-29T10:26:53.923Z,10.07
2018-05-29T10:28:54.879Z,11.10
2018-05-29T10:30:55.905Z,10.07
2018-05-29T10:32:56.901Z,9.40
2018-05-29T10:34:58.671Z,10.83
2018-05-29T10:36:59.623Z,9.80
2018-05-29T10:39:00.579Z,10.20
2018-05-29T10:41:01.536Z,9.70
2018-05-29T10:43:02.479Z,11.20
2018-05-29T10:45:03.428Z,9.57
2018-05-29T10:47:05.274Z,10.93
2018-05-29T10:49:06.971Z,9.97
2018-05-29T10:51:07.926Z,10.20
2018-05-29T10:53:09.145Z,9.47
2018-05-29T10:55:10.103Z,11.80
2018-05-29T10:57:11.051Z,9.87
2018-05-29T10:59:12.526Z,9.40
2018-05-29T11:01:14.309Z,8.37
2018-05-29T11:03:15.311Z,8.97
2018-05-29T11:05:17.038Z,9.63
2018-05-29T11:07:18.221Z,8.47
2018-05-29T11:09:19.206Z,8.80
2018-05-29T11:11:20.186Z,8.87
2018-05-29T11:13:22.408Z,8.70
2018-05-29T11:15:23.426Z,7.90
2018-05-29T11:17:25.302Z,7.40
2018-05-29T11:19:26.270Z,7.30
2018-05-29T11:21:28.816Z,8.47
2018-05-29T11:23:29.766Z,9.20
2018-05-29T11:25:31.486Z,7.40
2018-05-29T11:27:33.938Z,7.90
2018-05-29T11:29:34.920Z,7.57
2018-05-29T11:31:37.465Z,9.03
2018-05-29T11:33:38.426Z,8.93
2018-05-29T11:35:39.752Z,8.67
2018-05-29T11:37:40.697Z,8.20
2018-05-29T11:39:42.018Z,7.40
2018-05-29T11:41:43.002Z,8.10
2018-05-29T11:43:44.028Z,8.20
2018-05-29T11:45:44.994Z,11.23
2018-05-29T11:47:46.046Z,9.70
2018-05-29T11:49:47.017Z,7.67
2018-05-29T11:51:47.988Z,7.67
2018-05-29T11:53:48.956Z,7.33
2018-05-29T11:55:50.002Z,8.33
2018-05-29T11:57:51.024Z,7.30
2018-05-29T11:59:52.210Z,8.53
2018-05-29T12:01:53.218Z,7.30
2018-05-29T12:03:55.001Z,7.90
2018-05-29T12:05:56.018Z,7.43
2018-05-29T12:07:57.454Z,7.77
2018-05-29T12:09:58.531Z,7.40
2018-05-29T12:12:11.956Z,7.27
2018-05-29T12:14:12.994Z,7.03
2018-05-29T12:16:14.078Z,7.20
2018-05-29T12:18:15.159Z,7.30
2018-05-29T12:20:16.222Z,7.87
2018-05-29T12:22:17.293Z,6.83
2018-05-29T12:24:18.417Z,6.77
2018-05-29T12:26:19.513Z,7.00
2018-05-29T12:28:20.712Z,6.80
2018-05-29T12:30:21.791Z,7.10
2018-05-29T12:32:22.820Z,9.70
2018-05-29T12:34:23.823Z,7.53
2018-05-29T12:36:24.766Z,7.03
2018-05-29T12:38:26.074Z,6.97
2018-05-29T12:40:27.062Z,6.83
2018-05-29T12:42:28.378Z,7.17
2018-05-29T12:44:29.318Z,6.63
2018-05-29T12:46:30.654Z,6.40
2018-05-29T12:48:31.590Z,7.33
2018-05-29T12:50:32.531Z,6.47
2018-05-29T12:52:33.862Z,6.33
2018-05-29T12:54:35.343Z,6.57
2018-05-29T12:56:36.300Z,6.20
2018-05-29T12:58:37.241Z,6.40
2018-05-29T13:00:38.194Z,6.43
2018-05-29T13:02:39.137Z,6.80
2018-05-29T13:04:40.104Z,5.90
2018-05-29T13:06:41.418Z,6.53
2018-05-29T13:08:42.358Z,6.13
2018-05-29T13:10:43.389Z,7.20
2018-05-29T13:12:44.354Z,6.60
2018-05-29T13:14:45.299Z,5.90
2018-05-29T13:16:46.307Z,6.73
2018-05-29T13:18:47.225Z,8.03
2018-05-29T13:20:48.183Z,6.70
2018-05-29T13:22:50.104Z,6.30
2018-05-29T13:24:51.086Z,5.90
2018-05-29T13:26:52.195Z,6.47
2018-05-29T13:28:53.154Z,6.00
2018-05-29T13:30:54.619Z,6.07
2018-05-29T13:32:55.678Z,5.82
2018-05-29T13:34:56.626Z,5.68
2018-05-29T13:36:58.086Z,5.25
2018-05-29T13:38:59.034Z,7.32
2018-05-29T13:41:00.459Z,6.03
2018-05-29T13:43:01.444Z,5.67
2018-05-29T13:45:02.454Z,5.90
2018-05-29T13:47:03.889Z,5.83
2018-05-29T13:49:04.912Z,6.05
2018-05-29T13:51:05.880Z,6.15
2018-05-29T13:53:06.862Z,5.37
2018-05-29T13:55:08.018Z,6.28
2018-05-29T13:57:09.067Z,5.82
2018-05-29T13:59:10.078Z,7.07
2018-05-29T14:01:11.062Z,6.28
2018-05-29T14:03:12.047Z,6.50
2018-05-29T14:05:13.002Z,6.18
2018-05-29T14:07:14.075Z,6.07
2018-05-29T14:09:15.022Z,5.40
2018-05-29T14:11:16.271Z,5.57
2018-05-29T14:13:17.243Z,6.33
2018-05-29T14:15:18.186Z,5.90
2018-05-29T14:17:19.142Z,8.57
2018-05-29T14:19:20.798Z,5.23
2018-05-29T14:21:21.871Z,5.63
2018-05-29T14:23:22.826Z,5.73
2018-05-29T14:25:23.965Z,5.93
2018-05-29T14:27:24.909Z,6.73
2018-05-29T14:29:25.846Z,5.80
2018-05-29T14:33:35.342Z,6.50
2018-05-29T14:35:36.277Z,5.23
2018-05-29T14:37:37.260Z,5.30
2018-05-29T14:39:38.193Z,5.60
2018-05-29T14:41:39.153Z,5.77
2018-05-29T14:43:40.497Z,5.10
2018-05-29T14:45:41.420Z,5.50
2018-05-29T14:47:42.742Z,5.00
2018-05-29T14:49:43.706Z,5.10
2018-05-29T14:51:45.035Z,7.87
2018-05-29T14:53:46.352Z,5.70
2018-05-29T14:55:47.289Z,6.50
2018-05-29T14:57:48.234Z,5.57
2018-05-29T14:59:49.193Z,5.10
2018-05-29T15:01:50.506Z,5.33
2018-05-29T15:03:51.452Z,8.43
2018-05-29T15:05:52.413Z,5.70
2018-05-29T15:07:53.338Z,5.13
2018-05-29T15:09:54.662Z,5.40
2018-05-29T15:11:55.648Z,5.63
2018-05-29T15:13:57.041Z,5.40
2018-05-29T15:15:58.359Z,5.50
2018-05-29T15:17:59.298Z,5.10
2018-05-29T15:20:00.254Z,4.80
2018-05-29T15:22:01.649Z,4.40
2018-05-29T15:24:02.625Z,4.53
2018-05-29T15:26:03.667Z,5.30
2018-05-29T15:28:04.583Z,5.10
2018-05-29T15:30:05.536Z,5.30
2018-05-29T15:32:06.854Z,5.23
2018-05-29T15:34:08.342Z,4.70
2018-05-29T15:36:09.326Z,4.20
2018-05-29T15:38:10.377Z,4.40
2018-05-29T15:40:11.348Z,4.87
2018-05-29T15:42:12.379Z,4.33
2018-05-29T15:44:14.374Z,4.63
2018-05-29T15:46:15.343Z,4.60
2018-05-29T15:48:16.314Z,4.47
2018-05-29T15:50:17.276Z,4.60
2018-05-29T15:52:18.223Z,4.77
2018-05-29T15:54:19.170Z,5.50
2018-05-29T15:56:20.261Z,5.30
2018-05-29T15:58:21.574Z,5.30
2018-05-29T16:00:22.534Z,5.93
2018-05-29T16:02:23.515Z,6.23
2018-05-29T16:04:24.453Z,5.57
2018-05-29T16:06:25.398Z,5.20
2018-05-29T16:08:26.364Z,4.80
2018-05-29T16:10:27.675Z,7.50
2018-05-29T16:12:28.622Z,6.80
2018-05-29T16:14:29.567Z,6.53
2018-05-29T16:16:32.822Z,4.57
2018-05-29T16:18:33.798Z,5.00
2018-05-29T16:20:35.113Z,4.63
2018-05-29T16:22:36.339Z,5.20
2018-05-29T16:24:37.290Z,5.63
2018-05-29T16:26:38.250Z,4.97
2018-05-29T16:28:39.570Z,8.40
2018-05-29T16:30:40.509Z,5.10
2018-05-29T16:32:41.832Z,5.90
2018-05-29T16:34:42.882Z,5.67
2018-05-29T16:36:43.771Z,5.10
2018-05-29T16:38:44.715Z,4.70
2018-05-29T16:40:45.714Z,4.80
2018-05-29T16:42:46.622Z,5.00
2018-05-29T16:44:47.574Z,5.50
2018-05-29T16:46:49.070Z,5.17
2018-05-29T16:48:50.014Z,6.00
2018-05-29T16:50:50.980Z,5.33
2018-05-29T16:52:52.297Z,5.90
2018-05-29T16:54:53.244Z,5.70
2018-05-29T16:56:54.190Z,5.90
2018-05-29T16:58:55.682Z,5.93
2018-05-29T17:00:56.631Z,5.80
2018-05-29T17:02:57.581Z,5.40
2018-05-29T17:04:58.540Z,5.90
2018-05-29T17:06:59.864Z,5.50
2018-05-29T17:09:00.806Z,5.60
2018-05-29T17:11:01.755Z,5.77
2018-05-29T17:13:03.084Z,5.80
2018-05-29T17:15:04.048Z,5.30
2018-05-29T17:17:05.384Z,6.17
2018-05-29T17:19:06.364Z,5.73
2018-05-29T17:21:07.327Z,5.60
2018-05-29T17:23:08.288Z,5.93
2018-05-29T17:25:09.623Z,5.97
2018-05-29T17:27:10.955Z,6.00
2018-05-29T17:29:11.983Z,5.47
2018-05-29T17:31:12.994Z,5.57
2018-05-29T17:33:13.972Z,6.17
2018-05-29T17:35:15.323Z,6.30
2018-05-29T17:37:16.395Z,5.77
2018-05-29T17:39:17.426Z,5.83
2018-05-29T17:41:18.473Z,5.80
2018-05-29T17:43:19.468Z,5.13
2018-05-29T17:45:20.474Z,5.70
2018-05-29T17:47:21.458Z,5.07
2018-05-29T17:49:22.443Z,5.00
2018-05-29T17:51:23.590Z,4.60
2018-05-29T17:53:24.942Z,9.80
2018-05-29T17:55:26.302Z,6.23
2018-05-29T17:57:27.295Z,5.20
2018-05-29T17:59:28.281Z,5.80
2018-05-29T18:01:29.283Z,4.83
2018-05-29T18:03:30.669Z,5.13
2018-05-29T18:05:31.650Z,4.93
2018-05-29T18:07:32.622Z,5.00
2018-05-29T18:09:33.645Z,5.40
2018-05-29T18:11:34.618Z,5.57
2018-05-29T18:13:35.619Z,5.90
2018-05-29T18:15:36.975Z,5.40
2018-05-29T18:17:37.959Z,5.50
2018-05-29T18:19:38.941Z,5.83
2018-05-29T18:21:39.963Z,11.57
2018-05-29T18:23:41.335Z,7.00
2018-05-29T18:25:42.335Z,5.30
2018-05-29T18:27:43.765Z,5.80
2018-05-29T18:29:44.851Z,5.57
2018-05-29T18:31:45.871Z,6.07
2018-05-29T18:33:46.872Z,6.00
2018-05-29T18:35:47.872Z,5.87
2018-05-29T18:37:48.894Z,6.03
2018-05-29T18:39:49.909Z,6.13
2018-05-29T18:41:50.897Z,5.90
2018-05-29T18:43:51.878Z,6.40
2018-05-29T18:45:52.865Z,7.40
2018-05-29T18:47:53.851Z,5.70
2018-05-29T18:49:54.863Z,7.17
2018-05-29T18:51:55.842Z,6.50
2018-05-29T18:53:56.814Z,6.07
2018-05-29T18:55:57.814Z,5.80
2018-05-29T18:57:58.891Z,6.87
2018-05-29T18:59:59.870Z,6.47
2018-05-29T19:02:00.854Z,6.60
2018-05-29T19:04:08.834Z,5.80
2018-05-29T19:06:09.824Z,6.63
2018-05-29T19:08:11.185Z,6.33
2018-05-29T19:10:12.274Z,7.27
2018-05-29T19:12:13.252Z,9.27
2018-05-29T19:14:14.262Z,7.10
2018-05-29T19:16:15.646Z,6.00
2018-05-29T19:18:16.633Z,6.23
2018-05-29T19:20:17.626Z,45.40
2018-05-29T19:22:18.644Z,18.33
2018-05-29T19:24:19.662Z,6.53
2018-05-29T19:26:21.019Z,6.50
2018-05-29T19:28:22.039Z,6.37
2018-05-29T19:30:23.425Z,7.90
2018-05-29T19:32:24.407Z,7.03
2018-05-29T19:34:25.301Z,6.83
2018-05-29T19:36:26.266Z,7.20
2018-05-29T19:38:27.587Z,6.60
2018-05-29T19:40:28.530Z,6.03
2018-05-29T19:42:29.471Z,6.00
2018-05-29T19:44:30.397Z,6.00
2018-05-29T19:46:31.442Z,6.57
2018-05-29T19:48:32.434Z,6.10
2018-05-29T19:50:33.581Z,23.30
2018-05-29T19:52:34.538Z,9.07
2018-05-29T19:54:35.482Z,6.57
2018-05-29T19:56:36.486Z,7.30
2018-05-29T19:58:37.666Z,6.93
2018-05-29T20:00:39.949Z,6.43
2018-05-29T20:02:41.251Z,6.27
2018-05-29T20:04:42.961Z,7.40
2018-05-29T20:06:44.151Z,6.43
2018-05-29T20:08:45.125Z,6.30
2018-05-29T20:10:46.119Z,6.93
2018-05-29T20:12:47.099Z,7.13
2018-05-29T20:14:48.383Z,6.13
2018-05-29T20:16:49.387Z,6.70
2018-05-29T20:18:50.390Z,7.07
2018-05-29T20:20:51.797Z,7.47
2018-05-29T20:22:52.778Z,7.20
2018-05-29T20:24:54.267Z,6.97
2018-05-29T20:26:55.639Z,6.70
2018-05-29T20:28:56.648Z,7.53
2018-05-29T20:30:57.634Z,7.60
2018-05-29T20:32:59.014Z,7.27
2018-05-29T20:34:59.986Z,6.73
2018-05-29T20:37:01.011Z,7.20
2018-05-29T20:39:02.061Z,7.00
2018-05-29T20:41:03.047Z,8.30
2018-05-29T20:43:04.060Z,10.40
2018-05-29T20:45:05.439Z,7.70
2018-05-29T20:47:06.463Z,7.17
2018-05-29T20:49:07.455Z,7.03
2018-05-29T20:51:08.465Z,7.40
2018-05-29T20:53:10.503Z,7.43
2018-05-29T20:55:11.483Z,6.93
2018-05-29T20:57:12.511Z,7.70
2018-05-29T20:59:13.486Z,6.80
2018-05-29T21:01:14.478Z,6.70
2018-05-29T21:03:15.822Z,7.30
2018-05-29T21:05:16.819Z,6.50
2018-05-29T21:07:17.777Z,6.70
2018-05-29T21:09:18.769Z,6.53
2018-05-29T21:11:19.766Z,6.80
2018-05-29T21:13:20.745Z,6.40
2018-05-29T21:15:21.750Z,6.60
2018-05-29T21:17:23.099Z,6.77
2018-05-29T21:19:24.446Z,6.00
2018-05-29T21:21:25.894Z,6.53
2018-05-29T21:23:27.233Z,7.20
2018-05-29T21:25:28.603Z,7.00
2018-05-29T21:27:29.629Z,5.80
2018-05-29T21:29:30.605Z,6.77
2018-05-29T21:31:31.611Z,6.67
2018-05-29T21:33:32.653Z,6.80
2018-05-29T21:35:33.655Z,6.13
2018-05-29T21:37:34.986Z,6.37
2018-05-29T21:39:35.945Z,5.97
2018-05-29T21:41:36.938Z,7.10
2018-05-29T21:43:37.942Z,6.23
2018-05-29T21:45:38.931Z,6.90
2018-05-29T21:47:40.262Z,5.77
2018-05-29T21:49:41.598Z,6.07
2018-05-29T21:51:42.579Z,6.47
2018-05-29T21:53:43.558Z,6.20
2018-05-29T21:55:44.575Z,6.20
2018-05-29T21:57:45.550Z,6.53
2018-05-29T21:59:46.534Z,6.47
2018-05-29T22:01:47.558Z,6.20
2018-05-29T22:03:48.568Z,6.37
2018-05-29T22:05:49.926Z,6.47
2018-05-29T22:07:50.952Z,6.80
2018-05-29T22:09:52.386Z,6.13
2018-05-29T22:11:53.742Z,6.23
2018-05-29T22:13:55.195Z,6.40
2018-05-29T22:15:56.178Z,5.80
2018-05-29T22:17:57.189Z,6.10
2018-05-29T22:19:58.203Z,6.63
2018-05-29T22:21:59.190Z,6.63
2018-05-29T22:24:00.169Z,6.30
2018-05-29T22:26:01.128Z,6.37
2018-05-29T22:28:02.104Z,5.77
2018-05-29T22:30:03.102Z,6.13
2018-05-29T22:34:11.892Z,6.77
2018-05-29T22:36:13.227Z,5.70
2018-05-29T22:38:14.979Z,6.10
2018-05-29T22:40:16.334Z,6.73
2018-05-29T22:42:17.680Z,6.30
2018-05-29T22:44:19.207Z,6.63
2018-05-29T22:46:20.197Z,5.80
2018-05-29T22:48:21.189Z,6.30
2018-05-29T22:50:22.570Z,5.63
2018-05-29T22:52:23.533Z,5.77
2018-05-29T22:54:24.526Z,6.13
2018-05-29T22:56:25.669Z,6.03
2018-05-29T22:58:26.646Z,6.27
2018-05-29T23:00:27.642Z,6.30
2018-05-29T23:02:28.628Z,6.70
2018-05-29T23:04:29.619Z,6.90
2018-05-29T23:06:30.630Z,5.90
2018-05-29T23:08:31.661Z,6.87
2018-05-29T23:10:32.999Z,7.00
2018-05-29T23:12:34.335Z,6.90
2018-05-29T23:14:35.710Z,6.50
2018-05-29T23:16:36.698Z,5.40
2018-05-29T23:18:37.673Z,5.77
2018-05-29T23:20:38.659Z,6.77
2018-05-29T23:22:39.669Z,6.37
2018-05-29T23:24:40.646Z,6.93
2018-05-29T23:26:41.894Z,5.87
2018-05-29T23:28:50.289Z,6.70
2018-05-29T23:30:51.258Z,6.00
2018-05-29T23:32:52.246Z,6.07
2018-05-29T23:34:53.262Z,6.27
2018-05-29T23:36:54.250Z,6.17
2018-05-29T23:38:55.603Z,6.50
2018-05-29T23:40:56.736Z,6.20
2018-05-29T23:42:58.086Z,6.50
2018-05-29T23:44:59.062Z,6.07
2018-05-29T23:47:00.226Z,6.60
2018-05-29T23:49:01.231Z,6.33
2018-05-29T23:51:02.210Z,6.17
2018-05-29T23:53:03.606Z,6.70
2018-05-29T23:55:04.587Z,6.03
2018-05-29T23:57:05.944Z,7.40
2018-05-29T23:59:07.448Z,7.03
